createdAt,value
2018-06-12T18:03:15.746Z,51.10
2018-06-12T18:05:49.100Z,51.93
2018-06-12T18:08:17.969Z,52.58
2018-06-12T18:10:46.393Z,54.40
2018-06-12T18:13:14.748Z,54.02
2018-06-12T18:15:43.379Z,52.93
2018-06-12T18:18:11.751Z,53.22
2018-06-12T18:20:40.395Z,53.34
2018-06-12T18:23:09.118Z,53.15
2018-06-12T18:25:37.793Z,52.52
2018-06-12T18:28:06.477Z,52.47
2018-06-12T18:30:35.029Z,52.79
2018-06-12T18:33:03.543Z,52.01
2018-06-12T18:35:31.997Z,51.60
2018-06-12T18:38:00.625Z,52.65
2018-06-12T18:40:29.185Z,52.32
2018-06-12T18:42:57.521Z,52.54
2018-06-12T18:45:26.378Z,52.56
2018-06-12T18:47:54.921Z,52.17
2018-06-12T18:50:23.225Z,51.60
2018-06-12T18:52:52.108Z,51.72
2018-06-12T18:55:20.668Z,52.51
2018-06-12T18:57:49.082Z,52.54
2018-06-12T19:00:17.834Z,52.25
2018-06-12T19:02:46.389Z,52.27
2018-06-12T19:05:14.721Z,51.62
2018-06-12T19:07:43.310Z,51.76
2018-06-12T19:10:11.893Z,52.24
2018-06-12T19:12:40.587Z,52.51
2018-06-12T19:15:09.346Z,52.66
2018-06-12T19:17:37.733Z,53.15
2018-06-12T19:20:06.331Z,53.53
2018-06-12T19:22:35.354Z,54.08
2018-06-12T19:25:04.026Z,53.96
2018-06-12T19:27:32.308Z,54.22
2018-06-12T19:30:01.289Z,54.60
2018-06-12T19:32:29.762Z,54.23
2018-06-12T19:34:58.154Z,54.39
2018-06-12T19:37:26.898Z,54.99
2018-06-12T19:39:55.412Z,54.33
2018-06-12T19:42:24.110Z,55.05
2018-06-12T19:44:52.870Z,55.12
2018-06-12T19:47:21.142Z,54.75
2018-06-12T19:49:49.437Z,53.98
2018-06-12T19:52:18.670Z,53.95
2018-06-12T19:54:47.141Z,53.23
2018-06-12T19:57:15.940Z,53.55
2018-06-12T19:59:44.627Z,53.09
2018-06-12T20:02:13.193Z,52.71
2018-06-12T20:04:41.518Z,52.18
2018-06-12T20:07:10.402Z,51.81
2018-06-12T20:09:44.357Z,51.64
2018-06-12T20:12:12.457Z,51.40
2018-06-12T20:14:40.507Z,51.78
2018-06-12T20:17:08.728Z,51.55
2018-06-12T20:19:37.348Z,51.21
2018-06-12T20:22:11.405Z,50.63
2018-06-12T20:24:46.061Z,50.91
